sensor_id;sensor_type;location;lat;lon;timestamp;pressure;altitude;pressure_sealevel;temperature;humidity
11345;BME280;5727;42.600;23.028;2023-06-05T00:01:07;94135.47;;;15.20;100.00
11345;BME280;5727;42.600;23.028;2023-06-05T00:03:34;94135.47;;;15.20;100.00
11345;BME280;5727;42.600;23.028;2023-06-05T00:06:02;94131.25;;;15.15;100.00
11345;BME280;5727;42.600;23.028;2023-06-05T00:08:29;94126.53;;;15.24;100.00
11345;BME280;5727;42.600;23.028;2023-06-05T00:10:56;94132.25;;;15.11;100.00
11345;BME280;5727;42.600;23.028;2023-06-05T00:13:22;94117.69;;;15.17;100.00
11345;BME280;5727;42.600;23.028;2023-06-05T00:15:51;94125.69;;;15.20;100.00
11345;BME280;5727;42.600;23.028;2023-06-05T00:18:18;94129.66;;;15.30;100.00
11345;BME280;5727;42.600;23.028;2023-06-05T00:20:46;94131.97;;;15.31;100.00
11345;BME280;5727;42.600;23.028;2023-06-05T00:23:13;94135.88;;;15.37;100.00
11345;BME280;5727;42.600;23.028;2023-06-05T00:25:40;94132.59;;;15.25;100.00
11345;BME280;5727;42.600;23.028;2023-06-05T00:28:06;94146.88;;;15.24;100.00
11345;BME280;5727;42.600;23.028;2023-06-05T00:30:33;94151.22;;;15.16;100.00
11345;BME280;5727;42.600;23.028;2023-06-05T00:33:02;94150.22;;;15.21;100.00
11345;BME280;5727;42.600;23.028;2023-06-05T00:35:30;94150.63;;;15.23;100.00
11345;BME280;5727;42.600;23.028;2023-06-05T00:37:57;94158.81;;;15.18;100.00
11345;BME280;5727;42.600;23.028;2023-06-05T00:40:23;94146.03;;;15.20;100.00
11345;BME280;5727;42.600;23.028;2023-06-05T00:42:50;94144.50;;;15.19;100.00
11345;BME280;5727;42.600;23.028;2023-06-05T00:45:17;94138.47;;;15.18;100.00
11345;BME280;5727;42.600;23.028;2023-06-05T00:47:44;94131.56;;;15.14;100.00
11345;BME280;5727;42.600;23.028;2023-06-05T00:50:12;94127.97;;;15.22;100.00
11345;BME280;5727;42.600;23.028;2023-06-05T00:52:41;94128.75;;;15.22;100.00
11345;BME280;5727;42.600;23.028;2023-06-05T00:55:09;94123.41;;;15.19;100.00
11345;BME280;5727;42.600;23.028;2023-06-05T00:57:36;94118.97;;;15.23;100.00
11345;BME280;5727;42.600;23.028;2023-06-05T01:00:05;94120.56;;;15.27;100.00
11345;BME280;5727;42.600;23.028;2023-06-05T01:02:35;94119.81;;;15.27;100.00
11345;BME280;5727;42.600;23.028;2023-06-05T01:05:03;94107.72;;;15.26;100.00
11345;BME280;5727;42.600;23.028;2023-06-05T01:07:32;94105.84;;;15.26;100.00
11345;BME280;5727;42.600;23.028;2023-06-05T01:09:59;94099.84;;;15.29;100.00
11345;BME280;5727;42.600;23.028;2023-06-05T01:12:30;94101.88;;;15.17;100.00
11345;BME280;5727;42.600;23.028;2023-06-05T01:15:02;94095.31;;;15.11;100.00
11345;BME280;5727;42.600;23.028;2023-06-05T01:17:31;94089.97;;;15.07;100.00
11345;BME280;5727;42.600;23.028;2023-06-05T01:19:59;94085.97;;;14.98;100.00
11345;BME280;5727;42.600;23.028;2023-06-05T01:22:35;94082.22;;;14.99;100.00
11345;BME280;5727;42.600;23.028;2023-06-05T01:25:05;94085.13;;;14.94;100.00
11345;BME280;5727;42.600;23.028;2023-06-05T01:27:40;94083.00;;;14.84;100.00
11345;BME280;5727;42.600;23.028;2023-06-05T01:30:14;94090.06;;;14.80;100.00
11345;BME280;5727;42.600;23.028;2023-06-05T01:32:48;94099.25;;;14.86;100.00
11345;BME280;5727;42.600;23.028;2023-06-05T01:35:20;94093.41;;;14.92;100.00
11345;BME280;5727;42.600;23.028;2023-06-05T01:37:54;94095.59;;;14.90;100.00
11345;BME280;5727;42.600;23.028;2023-06-05T01:40:23;94093.84;;;14.79;100.00
11345;BME280;5727;42.600;23.028;2023-06-05T01:42:52;94098.91;;;14.72;100.00
11345;BME280;5727;42.600;23.028;2023-06-05T01:45:20;94097.41;;;14.71;100.00
11345;BME280;5727;42.600;23.028;2023-06-05T01:47:47;94100.13;;;14.58;100.00
11345;BME280;5727;42.600;23.028;2023-06-05T01:50:15;94099.19;;;14.66;100.00
11345;BME280;5727;42.600;23.028;2023-06-05T01:52:43;94096.63;;;14.70;100.00
11345;BME280;5727;42.600;23.028;2023-06-05T01:55:14;94102.75;;;14.74;100.00
11345;BME280;5727;42.600;23.028;2023-06-05T01:57:43;94099.09;;;14.79;100.00
11345;BME280;5727;42.600;23.028;2023-06-05T02:00:10;94097.63;;;14.81;100.00
11345;BME280;5727;42.600;23.028;2023-06-05T02:02:41;94094.69;;;14.83;100.00
11345;BME280;5727;42.600;23.028;2023-06-05T02:05:08;94100.38;;;14.85;100.00
11345;BME280;5727;42.600;23.028;2023-06-05T02:07:36;94096.81;;;14.77;100.00
11345;BME280;5727;42.600;23.028;2023-06-05T02:10:04;94100.53;;;14.60;100.00
11345;BME280;5727;42.600;23.028;2023-06-05T02:12:31;94089.66;;;14.62;100.00
11345;BME280;5727;42.600;23.028;2023-06-05T02:14:59;94091.69;;;14.68;100.00
11345;BME280;5727;42.600;23.028;2023-06-05T02:17:26;94091.53;;;14.61;100.00
11345;BME280;5727;42.600;23.028;2023-06-05T02:19:54;94090.75;;;14.45;100.00
11345;BME280;5727;42.600;23.028;2023-06-05T02:22:21;94092.47;;;14.53;100.00
11345;BME280;5727;42.600;23.028;2023-06-05T02:24:49;94092.22;;;14.58;100.00
11345;BME280;5727;42.600;23.028;2023-06-05T02:27:17;94090.19;;;14.68;100.00
11345;BME280;5727;42.600;23.028;2023-06-05T02:29:44;94083.09;;;14.72;100.00
11345;BME280;5727;42.600;23.028;2023-06-05T02:32:12;94086.16;;;14.74;100.00
11345;BME280;5727;42.600;23.028;2023-06-05T02:34:39;94084.78;;;14.80;100.00
11345;BME280;5727;42.600;23.028;2023-06-05T02:37:06;94084.13;;;14.83;100.00
11345;BME280;5727;42.600;23.028;2023-06-05T02:39:33;94087.69;;;14.90;100.00
11345;BME280;5727;42.600;23.028;2023-06-05T02:42:00;94076.50;;;14.97;100.00
11345;BME280;5727;42.600;23.028;2023-06-05T02:44:27;94079.06;;;14.93;100.00
11345;BME280;5727;42.600;23.028;2023-06-05T02:46:54;94092.47;;;14.85;100.00
11345;BME280;5727;42.600;23.028;2023-06-05T02:49:22;94090.50;;;14.82;100.00
11345;BME280;5727;42.600;23.028;2023-06-05T02:51:49;94091.78;;;14.88;100.00
11345;BME280;5727;42.600;23.028;2023-06-05T02:54:16;94098.41;;;14.82;100.00
11345;BME280;5727;42.600;23.028;2023-06-05T02:56:42;94100.72;;;14.68;100.00
11345;BME280;5727;42.600;23.028;2023-06-05T02:59:09;94103.38;;;14.68;100.00
11345;BME280;5727;42.600;23.028;2023-06-05T03:01:36;94102.69;;;14.71;100.00
11345;BME280;5727;42.600;23.028;2023-06-05T03:04:03;94101.66;;;14.75;100.00
11345;BME280;5727;42.600;23.028;2023-06-05T03:06:33;94112.66;;;14.77;100.00
11345;BME280;5727;42.600;23.028;2023-06-05T03:09:00;94116.38;;;14.76;100.00
11345;BME280;5727;42.600;23.028;2023-06-05T03:11:28;94111.19;;;14.80;100.00
11345;BME280;5727;42.600;23.028;2023-06-05T03:13:54;94108.28;;;14.85;100.00
11345;BME280;5727;42.600;23.028;2023-06-05T03:16:21;94106.09;;;14.87;100.00
11345;BME280;5727;42.600;23.028;2023-06-05T03:18:49;94111.25;;;14.83;100.00
11345;BME280;5727;42.600;23.028;2023-06-05T03:21:16;94122.41;;;14.92;100.00
11345;BME280;5727;42.600;23.028;2023-06-05T03:23:44;94119.16;;;14.99;100.00
11345;BME280;5727;42.600;23.028;2023-06-05T03:26:11;94109.97;;;14.93;100.00
11345;BME280;5727;42.600;23.028;2023-06-05T03:28:38;94114.22;;;14.97;100.00
11345;BME280;5727;42.600;23.028;2023-06-05T03:31:04;94109.03;;;15.01;100.00
11345;BME280;5727;42.600;23.028;2023-06-05T03:33:31;94117.03;;;15.04;100.00
11345;BME280;5727;42.600;23.028;2023-06-05T03:35:58;94121.13;;;15.02;100.00
11345;BME280;5727;42.600;23.028;2023-06-05T03:38:25;94120.69;;;15.00;100.00
11345;BME280;5727;42.600;23.028;2023-06-05T03:40:53;94124.63;;;15.06;100.00
11345;BME280;5727;42.600;23.028;2023-06-05T03:43:20;94119.41;;;15.09;100.00
11345;BME280;5727;42.600;23.028;2023-06-05T03:45:50;94122.47;;;15.11;100.00
11345;BME280;5727;42.600;23.028;2023-06-05T03:48:17;94116.94;;;15.16;100.00
11345;BME280;5727;42.600;23.028;2023-06-05T03:50:47;94114.78;;;15.22;100.00
11345;BME280;5727;42.600;23.028;2023-06-05T03:53:16;94112.50;;;15.20;100.00
11345;BME280;5727;42.600;23.028;2023-06-05T03:55:44;94110.78;;;15.28;100.00
11345;BME280;5727;42.600;23.028;2023-06-05T03:58:15;94111.53;;;15.28;100.00
11345;BME280;5727;42.600;23.028;2023-06-05T04:00:42;94112.47;;;15.36;100.00
11345;BME280;5727;42.600;23.028;2023-06-05T04:03:09;94111.44;;;15.40;100.00
11345;BME280;5727;42.600;23.028;2023-06-05T04:05:37;94111.53;;;15.44;100.00
11345;BME280;5727;42.600;23.028;2023-06-05T04:08:04;94104.47;;;15.48;100.00
11345;BME280;5727;42.600;23.028;2023-06-05T04:10:31;94107.41;;;15.46;100.00
11345;BME280;5727;42.600;23.028;2023-06-05T04:12:58;94116.97;;;15.35;100.00
11345;BME280;5727;42.600;23.028;2023-06-05T04:15:27;94115.19;;;15.24;100.00
11345;BME280;5727;42.600;23.028;2023-06-05T04:17:54;94122.03;;;15.25;100.00
11345;BME280;5727;42.600;23.028;2023-06-05T04:20:21;94119.03;;;15.26;100.00
11345;BME280;5727;42.600;23.028;2023-06-05T04:22:48;94116.81;;;15.28;100.00
11345;BME280;5727;42.600;23.028;2023-06-05T04:25:15;94120.47;;;15.24;100.00
11345;BME280;5727;42.600;23.028;2023-06-05T04:27:43;94123.31;;;15.15;100.00
11345;BME280;5727;42.600;23.028;2023-06-05T04:30:12;94116.31;;;15.23;100.00
11345;BME280;5727;42.600;23.028;2023-06-05T04:32:41;94114.25;;;15.32;100.00
11345;BME280;5727;42.600;23.028;2023-06-05T04:35:08;94122.25;;;15.35;100.00
11345;BME280;5727;42.600;23.028;2023-06-05T04:37:36;94119.34;;;15.40;100.00
11345;BME280;5727;42.600;23.028;2023-06-05T04:40:05;94115.53;;;15.38;100.00
11345;BME280;5727;42.600;23.028;2023-06-05T04:42:35;94130.66;;;15.41;100.00
11345;BME280;5727;42.600;23.028;2023-06-05T04:45:03;94125.72;;;15.39;100.00
11345;BME280;5727;42.600;23.028;2023-06-05T04:47:31;94121.31;;;15.28;100.00
11345;BME280;5727;42.600;23.028;2023-06-05T04:50:01;94123.72;;;15.33;100.00
11345;BME280;5727;42.600;23.028;2023-06-05T04:52:29;94133.66;;;15.39;100.00
11345;BME280;5727;42.600;23.028;2023-06-05T04:54:56;94132.53;;;15.56;100.00
11345;BME280;5727;42.600;23.028;2023-06-05T04:57:24;94125.97;;;15.66;100.00
11345;BME280;5727;42.600;23.028;2023-06-05T04:59:51;94125.84;;;15.62;100.00
11345;BME280;5727;42.600;23.028;2023-06-05T05:02:18;94131.97;;;15.66;100.00
11345;BME280;5727;42.600;23.028;2023-06-05T05:04:45;94125.84;;;15.62;100.00
11345;BME280;5727;42.600;23.028;2023-06-05T05:07:14;94126.63;;;15.82;100.00
11345;BME280;5727;42.600;23.028;2023-06-05T05:09:42;94120.81;;;15.92;100.00
11345;BME280;5727;42.600;23.028;2023-06-05T05:12:08;94125.88;;;16.00;100.00
11345;BME280;5727;42.600;23.028;2023-06-05T05:14:36;94122.25;;;16.08;100.00
11345;BME280;5727;42.600;23.028;2023-06-05T05:17:05;94118.28;;;16.18;100.00
11345;BME280;5727;42.600;23.028;2023-06-05T05:19:32;94116.34;;;16.15;100.00
11345;BME280;5727;42.600;23.028;2023-06-05T05:21:59;94113.47;;;16.23;100.00
11345;BME280;5727;42.600;23.028;2023-06-05T05:24:27;94112.28;;;16.40;100.00
11345;BME280;5727;42.600;23.028;2023-06-05T05:26:54;94110.97;;;16.50;100.00
11345;BME280;5727;42.600;23.028;2023-06-05T05:29:21;94111.06;;;16.57;100.00
11345;BME280;5727;42.600;23.028;2023-06-05T05:31:47;94105.50;;;16.62;100.00
11345;BME280;5727;42.600;23.028;2023-06-05T05:34:16;94110.28;;;16.56;100.00
11345;BME280;5727;42.600;23.028;2023-06-05T05:36:42;94112.47;;;16.51;100.00
11345;BME280;5727;42.600;23.028;2023-06-05T05:39:10;94111.53;;;16.62;100.00
11345;BME280;5727;42.600;23.028;2023-06-05T05:41:38;94116.47;;;16.64;100.00
11345;BME280;5727;42.600;23.028;2023-06-05T05:44:05;94111.81;;;16.80;100.00
11345;BME280;5727;42.600;23.028;2023-06-05T05:46:32;94110.94;;;16.95;100.00
11345;BME280;5727;42.600;23.028;2023-06-05T05:48:59;94105.28;;;16.96;100.00
11345;BME280;5727;42.600;23.028;2023-06-05T05:51:25;94115.03;;;17.15;100.00
11345;BME280;5727;42.600;23.028;2023-06-05T05:53:53;94110.97;;;17.21;100.00
11345;BME280;5727;42.600;23.028;2023-06-05T05:56:20;94113.94;;;17.19;100.00
11345;BME280;5727;42.600;23.028;2023-06-05T05:58:48;94118.53;;;17.22;100.00
11345;BME280;5727;42.600;23.028;2023-06-05T06:01:15;94120.41;;;17.22;100.00
11345;BME280;5727;42.600;23.028;2023-06-05T06:03:42;94125.16;;;17.35;100.00
11345;BME280;5727;42.600;23.028;2023-06-05T06:06:09;94115.63;;;17.31;100.00
11345;BME280;5727;42.600;23.028;2023-06-05T06:08:36;94115.50;;;17.20;100.00
11345;BME280;5727;42.600;23.028;2023-06-05T06:11:03;94116.59;;;17.19;100.00
11345;BME280;5727;42.600;23.028;2023-06-05T06:13:31;94114.44;;;17.25;100.00
11345;BME280;5727;42.600;23.028;2023-06-05T06:16:00;94111.81;;;17.28;100.00
11345;BME280;5727;42.600;23.028;2023-06-05T06:18:26;94119.03;;;17.31;100.00
11345;BME280;5727;42.600;23.028;2023-06-05T06:20:53;94110.84;;;17.40;100.00
11345;BME280;5727;42.600;23.028;2023-06-05T06:23:20;94112.41;;;17.45;100.00
11345;BME280;5727;42.600;23.028;2023-06-05T06:25:47;94116.75;;;17.56;100.00
11345;BME280;5727;42.600;23.028;2023-06-05T06:28:15;94116.72;;;17.82;100.00
11345;BME280;5727;42.600;23.028;2023-06-05T06:30:42;94111.72;;;18.07;100.00
11345;BME280;5727;42.600;23.028;2023-06-05T06:33:11;94106.91;;;18.19;100.00
11345;BME280;5727;42.600;23.028;2023-06-05T06:35:37;94112.88;;;18.43;100.00
11345;BME280;5727;42.600;23.028;2023-06-05T06:38:04;94107.38;;;18.62;100.00
11345;BME280;5727;42.600;23.028;2023-06-05T06:40:31;94111.63;;;18.70;100.00
11345;BME280;5727;42.600;23.028;2023-06-05T06:42:58;94105.13;;;18.67;100.00
11345;BME280;5727;42.600;23.028;2023-06-05T06:45:25;94112.75;;;18.69;100.00
11345;BME280;5727;42.600;23.028;2023-06-05T06:47:52;94118.72;;;18.25;100.00
11345;BME280;5727;42.600;23.028;2023-06-05T06:50:21;94113.38;;;17.89;100.00
11345;BME280;5727;42.600;23.028;2023-06-05T06:52:48;94108.63;;;17.72;100.00
11345;BME280;5727;42.600;23.028;2023-06-05T06:55:15;94105.44;;;17.33;100.00
11345;BME280;5727;42.600;23.028;2023-06-05T06:57:42;94104.41;;;17.41;100.00
11345;BME280;5727;42.600;23.028;2023-06-05T07:00:09;94099.44;;;17.36;100.00
11345;BME280;5727;42.600;23.028;2023-06-05T07:02:39;94101.06;;;17.44;100.00
11345;BME280;5727;42.600;23.028;2023-06-05T07:05:06;94107.88;;;17.45;100.00
11345;BME280;5727;42.600;23.028;2023-06-05T07:07:34;94113.66;;;17.77;100.00
11345;BME280;5727;42.600;23.028;2023-06-05T07:10:01;94115.03;;;17.67;100.00
11345;BME280;5727;42.600;23.028;2023-06-05T07:12:28;94119.13;;;17.38;100.00
11345;BME280;5727;42.600;23.028;2023-06-05T07:14:54;94111.97;;;17.39;100.00
11345;BME280;5727;42.600;23.028;2023-06-05T07:17:21;94115.63;;;17.31;100.00
11345;BME280;5727;42.600;23.028;2023-06-05T07:19:48;94114.59;;;17.39;100.00
11345;BME280;5727;42.600;23.028;2023-06-05T07:22:15;94113.13;;;17.42;100.00
11345;BME280;5727;42.600;23.028;2023-06-05T07:24:44;94120.63;;;17.36;100.00
11345;BME280;5727;42.600;23.028;2023-06-05T07:27:11;94121.56;;;17.21;100.00
11345;BME280;5727;42.600;23.028;2023-06-05T07:29:38;94120.84;;;17.24;100.00
11345;BME280;5727;42.600;23.028;2023-06-05T07:32:05;94130.63;;;16.97;100.00
11345;BME280;5727;42.600;23.028;2023-06-05T07:34:33;94130.47;;;17.09;100.00
11345;BME280;5727;42.600;23.028;2023-06-05T07:37:00;94127.72;;;17.28;100.00
11345;BME280;5727;42.600;23.028;2023-06-05T07:39:27;94138.09;;;17.40;100.00
11345;BME280;5727;42.600;23.028;2023-06-05T07:41:56;94137.13;;;17.26;100.00
11345;BME280;5727;42.600;23.028;2023-06-05T07:44:23;94141.19;;;17.20;100.00
11345;BME280;5727;42.600;23.028;2023-06-05T07:46:50;94133.75;;;17.29;100.00
11345;BME280;5727;42.600;23.028;2023-06-05T07:49:19;94134.94;;;17.31;100.00
11345;BME280;5727;42.600;23.028;2023-06-05T07:51:49;94129.50;;;17.21;100.00
11345;BME280;5727;42.600;23.028;2023-06-05T07:54:17;94137.78;;;17.46;100.00
11345;BME280;5727;42.600;23.028;2023-06-05T07:56:48;94138.31;;;17.55;100.00
11345;BME280;5727;42.600;23.028;2023-06-05T07:59:17;94129.78;;;17.68;100.00
11345;BME280;5727;42.600;23.028;2023-06-05T08:01:50;94126.50;;;17.75;100.00
11345;BME280;5727;42.600;23.028;2023-06-05T08:04:17;94122.19;;;17.96;100.00
11345;BME280;5727;42.600;23.028;2023-06-05T08:06:44;94129.56;;;18.43;100.00
11345;BME280;5727;42.600;23.028;2023-06-05T08:09:11;94127.69;;;18.84;100.00
11345;BME280;5727;42.600;23.028;2023-06-05T08:11:38;94127.16;;;19.15;100.00
11345;BME280;5727;42.600;23.028;2023-06-05T08:14:05;94128.97;;;19.04;100.00
11345;BME280;5727;42.600;23.028;2023-06-05T08:16:35;94132.00;;;19.02;100.00
11345;BME280;5727;42.600;23.028;2023-06-05T08:19:04;94135.88;;;19.12;100.00
11345;BME280;5727;42.600;23.028;2023-06-05T08:21:34;94135.81;;;19.05;100.00
11345;BME280;5727;42.600;23.028;2023-06-05T08:24:02;94131.28;;;19.05;100.00
11345;BME280;5727;42.600;23.028;2023-06-05T08:26:29;94139.13;;;18.95;100.00
11345;BME280;5727;42.600;23.028;2023-06-05T08:28:56;94140.63;;;18.92;100.00
11345;BME280;5727;42.600;23.028;2023-06-05T08:31:23;94142.16;;;18.90;100.00
11345;BME280;5727;42.600;23.028;2023-06-05T08:33:51;94143.00;;;19.01;100.00
11345;BME280;5727;42.600;23.028;2023-06-05T08:36:18;94135.94;;;19.19;100.00
11345;BME280;5727;42.600;23.028;2023-06-05T08:38:46;94138.84;;;19.54;100.00
11345;BME280;5727;42.600;23.028;2023-06-05T08:41:13;94140.50;;;19.80;100.00
11345;BME280;5727;42.600;23.028;2023-06-05T08:43:41;94137.09;;;19.79;100.00
11345;BME280;5727;42.600;23.028;2023-06-05T08:46:11;94139.16;;;20.18;100.00
11345;BME280;5727;42.600;23.028;2023-06-05T08:48:42;94137.66;;;20.20;100.00
11345;BME280;5727;42.600;23.028;2023-06-05T08:51:12;94139.28;;;20.46;100.00
11345;BME280;5727;42.600;23.028;2023-06-05T08:53:51;94137.81;;;20.83;100.00
11345;BME280;5727;42.600;23.028;2023-06-05T08:56:18;94132.53;;;21.08;100.00
11345;BME280;5727;42.600;23.028;2023-06-05T08:58:46;94140.47;;;20.94;100.00
11345;BME280;5727;42.600;23.028;2023-06-05T09:01:14;94130.25;;;21.07;100.00
11345;BME280;5727;42.600;23.028;2023-06-05T09:03:41;94132.53;;;21.26;100.00
11345;BME280;5727;42.600;23.028;2023-06-05T09:06:10;94135.56;;;21.28;100.00
11345;BME280;5727;42.600;23.028;2023-06-05T09:08:37;94134.44;;;21.08;100.00
11345;BME280;5727;42.600;23.028;2023-06-05T09:11:21;94129.88;;;21.26;100.00
11345;BME280;5727;42.600;23.028;2023-06-05T09:13:49;94132.50;;;21.47;100.00
11345;BME280;5727;42.600;23.028;2023-06-05T09:16:19;94128.66;;;21.65;100.00
11345;BME280;5727;42.600;23.028;2023-06-05T09:18:53;94124.47;;;21.86;100.00
11345;BME280;5727;42.600;23.028;2023-06-05T09:21:22;94120.25;;;21.92;100.00
11345;BME280;5727;42.600;23.028;2023-06-05T09:24:10;94116.38;;;22.07;100.00
11345;BME280;5727;42.600;23.028;2023-06-05T09:26:48;94113.66;;;22.14;100.00
11345;BME280;5727;42.600;23.028;2023-06-05T09:29:26;94111.75;;;22.18;100.00
11345;BME280;5727;42.600;23.028;2023-06-05T09:31:54;94114.00;;;22.23;100.00
11345;BME280;5727;42.600;23.028;2023-06-05T09:34:23;94115.03;;;22.46;100.00
11345;BME280;5727;42.600;23.028;2023-06-05T09:36:52;94112.72;;;22.59;100.00
11345;BME280;5727;42.600;23.028;2023-06-05T09:39:20;94117.97;;;22.69;100.00
11345;BME280;5727;42.600;23.028;2023-06-05T09:41:50;94117.78;;;22.29;100.00
11345;BME280;5727;42.600;23.028;2023-06-05T09:44:17;94102.88;;;22.35;100.00
11345;BME280;5727;42.600;23.028;2023-06-05T09:46:54;94101.38;;;22.34;100.00
11345;BME280;5727;42.600;23.028;2023-06-05T09:49:25;94098.22;;;22.53;100.00
11345;BME280;5727;42.600;23.028;2023-06-05T09:51:55;94103.50;;;22.67;100.00
11345;BME280;5727;42.600;23.028;2023-06-05T09:54:27;94105.31;;;22.81;100.00
11345;BME280;5727;42.600;23.028;2023-06-05T09:56:57;94095.22;;;23.02;100.00
11345;BME280;5727;42.600;23.028;2023-06-05T09:59:27;94092.19;;;23.00;100.00
11345;BME280;5727;42.600;23.028;2023-06-05T10:01:55;94105.13;;;23.09;100.00
11345;BME280;5727;42.600;23.028;2023-06-05T10:04:25;94096.91;;;23.30;100.00
11345;BME280;5727;42.600;23.028;2023-06-05T10:06:56;94100.78;;;23.66;100.00
11345;BME280;5727;42.600;23.028;2023-06-05T10:09:24;94098.56;;;23.95;100.00
11345;BME280;5727;42.600;23.028;2023-06-05T10:11:52;94098.06;;;24.07;100.00
11345;BME280;5727;42.600;23.028;2023-06-05T10:14:20;94098.69;;;24.18;100.00
11345;BME280;5727;42.600;23.028;2023-06-05T10:16:49;94093.28;;;24.21;100.00
11345;BME280;5727;42.600;23.028;2023-06-05T10:19:17;94091.44;;;24.45;100.00
11345;BME280;5727;42.600;23.028;2023-06-05T10:21:46;94095.81;;;24.62;100.00
11345;BME280;5727;42.600;23.028;2023-06-05T10:24:18;94094.81;;;24.79;100.00
11345;BME280;5727;42.600;23.028;2023-06-05T10:27:09;94086.59;;;24.63;95.99
11345;BME280;5727;42.600;23.028;2023-06-05T10:30:06;94078.78;;;24.49;96.63
11345;BME280;5727;42.600;23.028;2023-06-05T10:32:52;94075.28;;;24.52;94.46
11345;BME280;5727;42.600;23.028;2023-06-05T10:35:39;94076.94;;;24.69;94.00
11345;BME280;5727;42.600;23.028;2023-06-05T10:38:16;94067.50;;;24.88;90.77
11345;BME280;5727;42.600;23.028;2023-06-05T10:40:46;94056.91;;;25.04;95.31
11345;BME280;5727;42.600;23.028;2023-06-05T10:43:25;94055.09;;;25.20;92.63
11345;BME280;5727;42.600;23.028;2023-06-05T10:45:53;94048.03;;;25.30;90.95
11345;BME280;5727;42.600;23.028;2023-06-05T10:48:20;94043.06;;;25.28;87.86
11345;BME280;5727;42.600;23.028;2023-06-05T10:50:47;94039.44;;;25.38;86.41
11345;BME280;5727;42.600;23.028;2023-06-05T10:53:41;94033.59;;;25.47;86.11
11345;BME280;5727;42.600;23.028;2023-06-05T10:59:14;94031.94;;;25.30;84.90
11345;BME280;5727;42.600;23.028;2023-06-05T11:01:41;94033.97;;;25.46;84.24
11345;BME280;5727;42.600;23.028;2023-06-05T11:04:09;94028.50;;;25.72;84.86
11345;BME280;5727;42.600;23.028;2023-06-05T11:06:36;94025.75;;;25.95;82.27
11345;BME280;5727;42.600;23.028;2023-06-05T11:09:08;94021.59;;;25.91;83.53
11345;BME280;5727;42.600;23.028;2023-06-05T11:11:58;94018.97;;;26.07;80.61
11345;BME280;5727;42.600;23.028;2023-06-05T11:14:42;94014.16;;;26.18;78.27
11345;BME280;5727;42.600;23.028;2023-06-05T11:17:30;94026.72;;;26.41;80.14
11345;BME280;5727;42.600;23.028;2023-06-05T11:19:57;94022.78;;;26.61;80.69
11345;BME280;5727;42.600;23.028;2023-06-05T11:22:24;94022.28;;;26.66;81.48
11345;BME280;5727;42.600;23.028;2023-06-05T11:25:25;94020.22;;;26.38;77.62
11345;BME280;5727;42.600;23.028;2023-06-05T11:27:55;94018.41;;;25.96;83.07
11345;BME280;5727;42.600;23.028;2023-06-05T11:30:24;94024.34;;;26.07;77.30
11345;BME280;5727;42.600;23.028;2023-06-05T11:32:52;94020.16;;;26.06;78.95
11345;BME280;5727;42.600;23.028;2023-06-05T11:35:25;94010.34;;;25.80;80.56
11345;BME280;5727;42.600;23.028;2023-06-05T11:38:06;94017.13;;;25.84;78.92
11345;BME280;5727;42.600;23.028;2023-06-05T11:40:33;94010.34;;;25.80;82.04
11345;BME280;5727;42.600;23.028;2023-06-05T11:43:03;94008.19;;;25.71;80.29
11345;BME280;5727;42.600;23.028;2023-06-05T11:45:32;94008.13;;;25.75;80.23
11345;BME280;5727;42.600;23.028;2023-06-05T11:48:06;94006.88;;;25.79;78.65
11345;BME280;5727;42.600;23.028;2023-06-05T11:50:34;94014.16;;;25.79;78.08
11345;BME280;5727;42.600;23.028;2023-06-05T11:53:04;94006.03;;;25.82;81.72
11345;BME280;5727;42.600;23.028;2023-06-05T11:55:31;94007.16;;;25.85;79.07
11345;BME280;5727;42.600;23.028;2023-06-05T11:58:10;93997.72;;;25.96;76.57
11345;BME280;5727;42.600;23.028;2023-06-05T12:00:37;93997.97;;;26.21;75.51
11345;BME280;5727;42.600;23.028;2023-06-05T12:03:04;93998.25;;;26.59;74.09
11345;BME280;5727;42.600;23.028;2023-06-05T12:05:31;94000.25;;;27.36;73.52
11345;BME280;5727;42.600;23.028;2023-06-05T12:08:10;93995.00;;;27.86;68.05
11345;BME280;5727;42.600;23.028;2023-06-05T12:10:47;93987.28;;;28.54;65.76
11345;BME280;5727;42.600;23.028;2023-06-05T12:13:15;93983.88;;;30.21;59.50
11345;BME280;5727;42.600;23.028;2023-06-05T12:15:42;93973.56;;;30.29;56.53
11345;BME280;5727;42.600;23.028;2023-06-05T12:18:09;93968.88;;;31.54;51.51
11345;BME280;5727;42.600;23.028;2023-06-05T12:20:38;93970.19;;;32.04;49.49
11345;BME280;5727;42.600;23.028;2023-06-05T12:23:05;93967.22;;;32.34;46.32
11345;BME280;5727;42.600;23.028;2023-06-05T12:25:33;93956.69;;;31.40;50.80
11345;BME280;5727;42.600;23.028;2023-06-05T12:28:00;93953.66;;;30.44;52.16
11345;BME280;5727;42.600;23.028;2023-06-05T12:30:39;93952.13;;;29.82;55.34
11345;BME280;5727;42.600;23.028;2023-06-05T12:33:06;93948.78;;;29.78;55.48
11345;BME280;5727;42.600;23.028;2023-06-05T12:35:34;93946.56;;;30.07;55.24
11345;BME280;5727;42.600;23.028;2023-06-05T12:38:00;93943.44;;;30.48;55.61
11345;BME280;5727;42.600;23.028;2023-06-05T12:40:28;93939.63;;;30.86;52.90
11345;BME280;5727;42.600;23.028;2023-06-05T12:42:55;93947.53;;;31.56;49.90
11345;BME280;5727;42.600;23.028;2023-06-05T12:45:22;93947.19;;;31.81;49.38
11345;BME280;5727;42.600;23.028;2023-06-05T12:47:50;93945.38;;;30.97;51.37
11345;BME280;5727;42.600;23.028;2023-06-05T12:50:17;93940.28;;;31.35;50.11
11345;BME280;5727;42.600;23.028;2023-06-05T12:52:44;93933.94;;;31.65;48.94
11345;BME280;5727;42.600;23.028;2023-06-05T12:55:11;93931.94;;;32.44;47.54
11345;BME280;5727;42.600;23.028;2023-06-05T12:57:38;93920.59;;;33.63;44.33
11345;BME280;5727;42.600;23.028;2023-06-05T13:00:07;93921.97;;;34.32;41.02
11345;BME280;5727;42.600;23.028;2023-06-05T13:02:37;93923.09;;;33.81;41.17
11345;BME280;5727;42.600;23.028;2023-06-05T13:05:07;93920.97;;;33.56;41.61